^^
Grace C. Lehan Memorial Weather Station Historical Data
Daily Summary for May 20, 2022 Units:  Metric    English   Both
Daily Weekly Monthly Yearly
  High: Low: Average:
Temperature: 24.7 °C 10.7 °C 16.9 °C
Dew Point: 18 °C 9.9 °C 14.3 °C
Humidity: 96.9% 60.2% 86%
Wind Speed: 2.7km/h 0km/h 0.2km/h
Wind Gust: 17.7km/h - -
Wind- - SSE
Pressure: 1015.1 hPa 1009.4 hPa -
Precipitation: 1.27 mm    
 
 
Tabular Data for May 20, 2022
Time Temperature Dew Point Pressure Wind Wind Speed Wind Gust Humidity Rainfall Rate (Hourly) solar
00:09 12 °C 10.9 °C 1009.4 hPa Calm     93% 0 mm 0 W/m2
00:14 11.9 °C 10.9 °C 1009.7 hPa Calm     93.2% 0 mm 0 W/m2
00:19 11.9 °C 10.9 °C 1009.7 hPa Calm     93.9% 0 mm 0 W/m2
00:24 11.8 °C 10.8 °C 1009.7 hPa Calm     93.3% 0 mm 0 W/m2
00:29 11.8 °C 10.7 °C 1009.7 hPa Calm     93% 0 mm 0 W/m2
00:34 11.7 °C 10.6 °C 1009.7 hPa Calm     93% 0 mm 0 W/m2
00:39 11.6 °C 10.6 °C 1009.7 hPa Calm     93.6% 0 mm 0 W/m2
00:44 11.6 °C 10.6 °C 1009.7 hPa Calm     94% 0 mm 0 W/m2
00:49 11.5 °C 10.6 °C 1009.7 hPa Calm     93.9% 0 mm 0 W/m2
00:54 11.5 °C 10.6 °C 1009.7 hPa Calm     94% 0 mm 0 W/m2
00:59 11.5 °C 10.6 °C 1010 hPa Calm     94% 0 mm 0 W/m2
01:04 11.5 °C 10.6 °C 1010 hPa Calm     94% 0 mm 0 W/m2
01:09 11.5 °C 10.6 °C 1010.4 hPa Calm     94% 0 mm 0 W/m2
01:14 11.5 °C 10.6 °C 1010.4 hPa Calm     94% 0 mm 0 W/m2
01:19 11.5 °C 10.6 °C 1010.4 hPa Calm     94% 0 mm 0 W/m2
01:24 11.6 °C 10.6 °C 1010 hPa Calm     94% 0 mm 0 W/m2
01:29 11.6 °C 10.6 °C 1010 hPa Calm     94% 0 mm 0 W/m2
01:34 11.6 °C 10.6 °C 1010 hPa Calm     94% 0 mm 0 W/m2
01:39 11.6 °C 10.6 °C 1010 hPa Calm     94% 0 mm 0 W/m2
01:44 11.5 °C 10.6 °C 1010 hPa Calm     94% 0 mm 0 W/m2
01:49 11.5 °C 10.6 °C 1010 hPa Calm     94% 0 mm 0 W/m2
01:54 11.5 °C 10.6 °C 1010 hPa Calm     94.4% 0 mm 0 W/m2
01:59 11.5 °C 10.7 °C 1010 hPa Calm     94.5% 0 mm 0 W/m2
02:04 11.6 °C 10.8 °C 1010 hPa Calm     95% 0 mm 0 W/m2
02:09 11.6 °C 10.8 °C 1010 hPa Calm     95% 0 mm 0 W/m2
02:14 11.6 °C 10.8 °C 1010 hPa Calm     95% 0 mm 0 W/m2
02:19 11.5 °C 10.7 °C 1010.4 hPa Calm     95% 0 mm 0 W/m2
02:24 11.5 °C 10.7 °C 1010.4 hPa Calm     95% 0 mm 0 W/m2
02:29 11.5 °C 10.7 °C 1010.4 hPa Calm     95% 0 mm 0 W/m2
02:34 11.5 °C 10.7 °C 1010.4 hPa Calm     95% 0 mm 0 W/m2
02:39 11.5 °C 10.7 °C 1010.4 hPa Calm     95% 0 mm 0 W/m2
02:44 11.5 °C 10.7 °C 1010.4 hPa Calm     95% 0 mm 0 W/m2
02:49 11.5 °C 10.7 °C 1010.4 hPa Calm     95% 0 mm 0 W/m2
02:54 11.5 °C 10.7 °C 1010.4 hPa Calm     95% 0 mm 0 W/m2
02:59 11.5 °C 10.7 °C 1010.4 hPa Calm     95% 0 mm 0 W/m2
03:04 11.4 °C 10.7 °C 1010.4 hPa Calm     95% 0 mm 0 W/m2
03:09 11.4 °C 10.7 °C 1010.4 hPa Calm     95% 0 mm 0 W/m2
03:13 11.4 °C 10.7 °C 1010.4 hPa Calm     95% 0 mm 0 W/m2
03:19 11.4 °C 10.7 °C 1010.4 hPa Calm     95% 0 mm 0 W/m2
03:24 11.4 °C 10.7 °C 1010.4 hPa Calm     95% 0 mm 0 W/m2
03:29 11.4 °C 10.7 °C 1010.4 hPa Calm     95% 0 mm 0 W/m2
03:34 11.4 °C 10.6 °C 1010.4 hPa Calm     95% 0 mm 0 W/m2
03:39 11.3 °C 10.5 °C 1010.4 hPa Calm     95% 0 mm 0 W/m2
03:44 11.2 °C 10.4 °C 1010.4 hPa Calm     95% 0 mm 0 W/m2
03:49 11.2 °C 10.4 °C 1010.4 hPa Calm     95% 0 mm 0 W/m2
03:54 11.1 °C 10.3 °C 1010.4 hPa Calm     95% 0 mm 0 W/m2
03:59 11.1 °C 10.3 °C 1010.4 hPa Calm     95% 0 mm 0 W/m2
04:00 11.1 °C 10.3 °C 1010.4 hPa Calm     95% 0 mm 0 W/m2
04:09 11.1 °C 10.3 °C 1010 hPa Calm     95% 0 mm 0 W/m2
04:14 11.1 °C 10.3 °C 1010.4 hPa Calm   1.6 km/h 95% 0.25 mm 0 W/m2
04:19 11.1 °C 10.3 °C 1010.4 hPa WSW 0.2 km/h 3.2 km/h 95% 0.25 mm 0 W/m2
04:24 11.1 °C 10.3 °C 1010.7 hPa WSW 0.2 km/h 4.8 km/h 95% 0.25 mm 0 W/m2
04:29 11.1 °C 10.3 °C 1010.7 hPa WSW 0.6 km/h 8 km/h 95% 0.25 mm 0 W/m2
04:34 11.1 °C 10.3 °C 1010.7 hPa WSW 0.2 km/h 8 km/h 95% 0.25 mm 0 W/m2
04:39 11.1 °C 10.3 °C 1010.7 hPa Calm   3.2 km/h 95% 0.25 mm 0 W/m2
04:44 11.1 °C 10.3 °C 1010.7 hPa Calm   3.2 km/h 95% 0.25 mm 0 W/m2
04:49 11 °C 10.2 °C 1011.1 hPa Calm   3.2 km/h 95% 0.25 mm 0 W/m2
04:54 11 °C 10.2 °C 1011.1 hPa Calm   3.2 km/h 95% 0.25 mm 0 W/m2
04:59 11 °C 10.2 °C 1011.1 hPa Calm   3.2 km/h 95% 0.25 mm 0 W/m2
05:03 10.9 °C 10.2 °C 1011.1 hPa Calm   3.2 km/h 95% 0.25 mm 0 W/m2
05:09 10.9 °C 10.2 °C 1011.4 hPa Calm     95% 0 mm 0 W/m2
05:14 10.9 °C 10.1 °C 1011.4 hPa Calm     95% 0 mm 0 W/m2
05:19 10.8 °C 10.1 °C 1011.4 hPa Calm     95% 0 mm 0 W/m2
05:24 10.8 °C 10.1 °C 1011.4 hPa Calm     95% 0 mm 0 W/m2
05:29 10.8 °C 10 °C 1011.4 hPa Calm     95% 0 mm 0 W/m2
05:34 10.7 °C 9.9 °C 1011.4 hPa Calm     95% 0 mm 5 W/m2
05:39 10.7 °C 9.9 °C 1011.7 hPa Calm     95% 0 mm 9 W/m2
05:44 10.7 °C 9.9 °C 1011.7 hPa Calm     95% 0 mm 12 W/m2
05:49 10.7 °C 9.9 °C 1011.7 hPa Calm     95% 0 mm 16 W/m2
05:54 10.7 °C 10 °C 1011.7 hPa Calm     95.5% 0 mm 16 W/m2
05:59 10.7 °C 10.1 °C 1012.1 hPa Calm     96% 0 mm 18 W/m2
06:04 10.8 °C 10.2 °C 1012.1 hPa Calm     96% 0 mm 18 W/m2
06:09 10.8 °C 10.2 °C 1012.1 hPa Calm     96% 0 mm 32 W/m2
06:13 10.9 °C 10.3 °C 1012.4 hPa Calm     96% 0 mm 32 W/m2
06:19 10.9 °C 10.3 °C 1012.4 hPa Calm     96% 0 mm 35 W/m2
06:24 11.1 °C 10.4 °C 1012.4 hPa Calm     96% 0 mm 47 W/m2
06:29 11.1 °C 10.4 °C 1012.8 hPa Calm     96% 0 mm 54 W/m2
06:34 11.1 °C 10.5 °C 1013.1 hPa Calm     96% 0 mm 81 W/m2
06:39 11.3 °C 10.7 °C 1013.1 hPa Calm     96% 0 mm 113 W/m2
06:44 11.4 °C 10.8 °C 1013.1 hPa Calm     96% 0 mm 113 W/m2
06:49 11.5 °C 10.9 °C 1013.1 hPa Calm     96% 0 mm 77 W/m2
06:54 11.6 °C 10.9 °C 1013.1 hPa Calm     96% 0 mm 81 W/m2
06:59 11.7 °C 11.1 °C 1013.1 hPa Calm     96% 0 mm 88 W/m2
07:04 11.7 °C 11.1 °C 1013.1 hPa Calm     96% 0 mm 70 W/m2
07:09 11.8 °C 11.2 °C 1013.1 hPa Calm     96% 0 mm 58 W/m2
07:14 11.8 °C 11.2 °C 1013.4 hPa Calm     96% 0 mm 107 W/m2
07:19 11.9 °C 11.2 °C 1013.4 hPa Calm     96% 0 mm 137 W/m2
07:24 12 °C 11.4 °C 1013.4 hPa Calm     96% 0 mm 153 W/m2
07:29 12.2 °C 11.6 °C 1013.4 hPa Calm     96% 0 mm 77 W/m2
07:34 12.2 °C 11.6 °C 1013.4 hPa Calm     96% 0 mm 105 W/m2
07:39 12.1 °C 11.5 °C 1013.4 hPa Calm     96% 0 mm 172 W/m2
07:44 12.2 °C 11.6 °C 1013.8 hPa Calm     96% 0 mm 172 W/m2
07:49 12.3 °C 11.7 °C 1013.8 hPa Calm     96% 0 mm 116 W/m2
07:54 12.4 °C 11.8 °C 1014.1 hPa Calm     96% 0 mm 62 W/m2
07:59 12.4 °C 11.8 °C 1014.1 hPa Calm     96% 0 mm 60 W/m2
08:00 12.4 °C 11.8 °C 1014.1 hPa Calm     96% 0 mm 54 W/m2
08:09 12.5 °C 11.9 °C 1014.1 hPa Calm     96% 0 mm 83 W/m2
08:14 12.5 °C 11.9 °C 1014.1 hPa Calm     96% 0 mm 81 W/m2
08:19 12.5 °C 11.9 °C 1014.1 hPa Calm     96% 0 mm 65 W/m2
08:24 12.6 °C 11.9 °C 1014.4 hPa Calm     96% 0 mm 79 W/m2
08:28 12.7 °C 12.1 °C 1014.1 hPa Calm     96% 0 mm 81 W/m2
08:34 12.7 °C 12 °C 1014.4 hPa Calm     96% 0 mm 104 W/m2
08:35 12.7 °C 12.1 °C 1014.4 hPa Calm     96% 0 mm 104 W/m2
08:44 12.8 °C 12.1 °C 1014.8 hPa Calm     96% 0 mm 146 W/m2
08:49 12.8 °C 12.2 °C 1014.8 hPa Calm     96% 0 mm 141 W/m2
08:54 13 °C 12.4 °C 1014.8 hPa Calm     96% 0 mm 156 W/m2
08:59 13.1 °C 12.5 °C 1014.8 hPa Calm     96% 0 mm 211 W/m2
09:04 13.2 °C 12.6 °C 1014.8 hPa Calm     96% 0 mm 267 W/m2
09:09 13.4 °C 12.8 °C 1014.4 hPa Calm     96% 0 mm 341 W/m2
09:14 13.6 °C 12.9 °C 1014.4 hPa Calm     96% 0 mm 387 W/m2
09:19 13.9 °C 13.3 °C 1014.4 hPa Calm     96.5% 0 mm 452 W/m2
09:24 14.2 °C 13.7 °C 1014.8 hPa Calm     96.9% 0 mm 554 W/m2
09:29 14.4 °C 13.8 °C 1014.8 hPa Calm     96.6% 0 mm 847 W/m2
09:34 14.8 °C 14.3 °C 1014.8 hPa Calm     96.9% 0 mm 737 W/m2
09:39 15.1 °C 14.4 °C 1014.4 hPa Calm     96.2% 0 mm 693 W/m2
09:44 15.5 °C 14.8 °C 1014.4 hPa Calm   1.6 km/h 96% 0 mm 677 W/m2
09:49 16.2 °C 15.6 °C 1014.8 hPa Calm   1.6 km/h 96% 0 mm 735 W/m2
09:54 16.8 °C 15.9 °C 1014.8 hPa Calm   1.6 km/h 94.6% 0 mm 881 W/m2
09:59 17.4 °C 16.1 °C 1014.8 hPa Calm   1.6 km/h 92.1% 0 mm 881 W/m2
10:04 17.7 °C 15.7 °C 1014.8 hPa Calm   1.6 km/h 88.4% 0 mm 548 W/m2
10:09 17.8 °C 15.7 °C 1014.8 hPa Calm     87.2% 0 mm 548 W/m2
10:14 18 °C 15.7 °C 1014.8 hPa Calm   1.6 km/h 86% 0 mm 705 W/m2
10:19 18.4 °C 16 °C 1014.8 hPa Calm   1.6 km/h 85.9% 0 mm 802 W/m2
10:24 18.7 °C 15.9 °C 1014.8 hPa Calm   1.6 km/h 83.6% 0 mm 773 W/m2
10:29 18.8 °C 15.7 °C 1014.8 hPa Calm   1.6 km/h 82% 0 mm 687 W/m2
10:34 18.9 °C 15.7 °C 1015.1 hPa Calm   1.6 km/h 81.5% 0 mm 824 W/m2
10:36 18.9 °C 15.7 °C 1015.1 hPa Calm     81.4% 0 mm 809 W/m2
11:00 19.5 °C 15.9 °C 1015.1 hPa Calm   6.4 km/h 80% 0 mm 787 W/m2
11:30 21.2 °C 17.2 °C 1014.8 hPa Calm   8 km/h 78% 0 mm 826 W/m2
12:04 22.7 °C 17.1 °C 1014.4 hPa Calm     71% 0 mm 930 W/m2
12:09 22.7 °C 17.3 °C 1014.4 hPa Calm     71.9% 0 mm 926 W/m2
12:14 22.9 °C 18 °C 1014.4 hPa SW 0.5 km/h 9.7 km/h 73.6% 0 mm 884 W/m2
12:19 23.1 °C 17.7 °C 1014.4 hPa SW 0.3 km/h 9.7 km/h 71.5% 0 mm 886 W/m2
12:24 23.3 °C 17.6 °C 1014.1 hPa SW 0.5 km/h 9.7 km/h 70.5% 0 mm 928 W/m2
12:29 23.4 °C 18 °C 1014.1 hPa Calm   9.7 km/h 71.4% 0 mm 933 W/m2
12:34 23.7 °C 17.9 °C 1014.4 hPa Calm   9.7 km/h 70.2% 0 mm 991 W/m2
12:39 23.7 °C 17.4 °C 1014.4 hPa SSW 0.2 km/h 3.2 km/h 67.6% 0 mm 949 W/m2
12:44 23.7 °C 17.3 °C 1014.4 hPa SSW 0.8 km/h 6.4 km/h 67% 0 mm 993 W/m2
12:49 23.8 °C 17.3 °C 1014.1 hPa ESE 0.8 km/h 6.4 km/h 66.7% 0 mm 1014 W/m2
12:54 23.9 °C 17.4 °C 1014.1 hPa ESE 1.4 km/h 12.9 km/h 67% 0 mm 988 W/m2
12:59 24.1 °C 17.7 °C 1014.1 hPa ESE 0.2 km/h 12.9 km/h 67.4% 0 mm 1053 W/m2
13:04 24.3 °C 17.9 °C 1014.1 hPa ESE 0.2 km/h 12.9 km/h 67.7% 0 mm 1053 W/m2
13:09 24.5 °C 17.6 °C 1014.1 hPa South 1.1 km/h 8 km/h 65.1% 0 mm 1042 W/m2
13:14 24.7 °C 17.6 °C 1014.1 hPa SSW 1 km/h 8 km/h 64.4% 0 mm 1053 W/m2
13:19 24.7 °C 16.8 °C 1014.1 hPa South 0.5 km/h 8 km/h 61.5% 0 mm 526 W/m2
13:24 24.4 °C 16.7 °C 1014.1 hPa South 0.3 km/h 8 km/h 62% 0 mm 346 W/m2
13:29 24.2 °C 16.6 °C 1014.1 hPa South 0.3 km/h 8 km/h 62.5% 0 mm 330 W/m2
13:34 24.1 °C 17.1 °C 1014.1 hPa Calm   8 km/h 65% 0 mm 336 W/m2
13:39 24.1 °C 17.4 °C 1014.1 hPa Calm   3.2 km/h 66.4% 0 mm 341 W/m2
13:44 24 °C 16.8 °C 1014.4 hPa SSW 0.8 km/h 8 km/h 64.3% 0 mm 350 W/m2
13:49 24 °C 16.6 °C 1014.4 hPa SW 0.5 km/h 8 km/h 63.1% 0 mm 325 W/m2
13:54 23.9 °C 15.8 °C 1014.4 hPa South 1.6 km/h 9.7 km/h 60.6% 0 mm 246 W/m2
13:59 23.6 °C 15.4 °C 1014.4 hPa South 1.8 km/h 11.3 km/h 60.2% 0 mm 202 W/m2
14:04 23.4 °C 15.3 °C 1014.4 hPa SSE 1 km/h 11.3 km/h 60.6% 0 mm 151 W/m2
14:09 23.1 °C 15.2 °C 1014.1 hPa South 0.8 km/h 9.7 km/h 61.1% 0 mm 120 W/m2
14:14 22.9 °C 15.4 °C 1014.1 hPa South 0.3 km/h 9.7 km/h 62.7% 0 mm 128 W/m2
14:19 22.7 °C 15.6 °C 1014.1 hPa South 0.8 km/h 9.7 km/h 63.8% 0 mm 192 W/m2
14:24 22.6 °C 15.4 °C 1014.1 hPa South 2.6 km/h 11.3 km/h 64.1% 0 mm 334 W/m2
14:29 22.5 °C 15.7 °C 1014.1 hPa South 2.7 km/h 11.3 km/h 65.3% 0 mm 355 W/m2
14:34 22.6 °C 15.9 °C 1013.8 hPa South 1.6 km/h 11.3 km/h 66.3% 0 mm 891 W/m2
14:39 22.7 °C 16.2 °C 1013.8 hPa South 2.7 km/h 9.7 km/h 66.5% 0 mm 603 W/m2
14:44 22.8 °C 16.3 °C 1013.8 hPa South 2.1 km/h 9.7 km/h 66.8% 0 mm 468 W/m2
14:49 22.8 °C 16.6 °C 1013.8 hPa South 1 km/h 9.7 km/h 68.2% 0 mm 309 W/m2
14:54 22.7 °C 16.8 °C 1013.8 hPa South 1.9 km/h 11.3 km/h 69.3% 0 mm 766 W/m2
14:59 22.8 °C 17.1 °C 1013.8 hPa South 1.6 km/h 11.3 km/h 70% 0 mm 796 W/m2
15:04 22.9 °C 17.1 °C 1013.8 hPa South 1.4 km/h 11.3 km/h 69.9% 0 mm 575 W/m2
15:09 22.9 °C 17.3 °C 1013.8 hPa South 0.6 km/h 9.7 km/h 70.8% 0 mm 990 W/m2
15:14 23.2 °C 17.6 °C 1013.8 hPa South 1 km/h 9.7 km/h 70.8% 0 mm 844 W/m2
15:19 23.3 °C 17.3 °C 1013.4 hPa South 0.2 km/h 9.7 km/h 69.2% 0 mm 793 W/m2
15:24 23.3 °C 17.5 °C 1013.4 hPa South 0.3 km/h 9.7 km/h 69.6% 0 mm 773 W/m2
15:29 23.4 °C 17.6 °C 1013.4 hPa South 0.2 km/h 9.7 km/h 69.8% 0 mm 770 W/m2
15:34 23.4 °C 17.6 °C 1013.4 hPa South 0.5 km/h 9.7 km/h 69.6% 0 mm 770 W/m2
15:39 23.3 °C 17.3 °C 1013.4 hPa SE 1.1 km/h 16.1 km/h 69.2% 0 mm 380 W/m2
15:44 23.1 °C 17.2 °C 1013.4 hPa SE 1.3 km/h 16.1 km/h 69.7% 0 mm 345 W/m2
15:49 22.8 °C 17.3 °C 1013.4 hPa NE 0.3 km/h 16.1 km/h 71.2% 0 mm 912 W/m2
15:54 22.8 °C 17.4 °C 1013.1 hPa SE 1 km/h 16.1 km/h 71.7% 0 mm 912 W/m2
15:59 22.9 °C 17.5 °C 1013.1 hPa SE 0.2 km/h 16.1 km/h 71.4% 0 mm 789 W/m2
16:04 23.2 °C 17.8 °C 1013.1 hPa Calm     72% 0 mm 682 W/m2
16:09 23.2 °C 17.6 °C 1013.1 hPa SE 0.2 km/h 3.2 km/h 70.7% 0 mm 682 W/m2
16:14 23.1 °C 17.3 °C 1013.1 hPa SSE 1 km/h 11.3 km/h 69.6% 0 mm 100 W/m2
16:19 22.9 °C 17.2 °C 1013.1 hPa East 0.5 km/h 11.3 km/h 70% 0 mm 98 W/m2
16:24 22.8 °C 17.1 °C 1013.4 hPa ESE 0.6 km/h 11.3 km/h 70.2% 0 mm 100 W/m2
16:29 22.6 °C 17 °C 1013.4 hPa ESE 1 km/h 11.3 km/h 70.6% 0 mm 100 W/m2
16:34 22.4 °C 17 °C 1013.4 hPa ESE 1.3 km/h 11.3 km/h 71.2% 0 mm 93 W/m2
16:39 22.4 °C 17.1 °C 1013.4 hPa Calm   4.8 km/h 71.9% 0 mm 93 W/m2
16:44 22.3 °C 17.2 °C 1013.4 hPa SE 0.2 km/h 4.8 km/h 72.5% 0 mm 88 W/m2
16:49 22.3 °C 17 °C 1013.4 hPa SE 0.3 km/h 6.4 km/h 72% 0 mm 121 W/m2
16:54 22.2 °C 17 °C 1013.4 hPa ESE 0.3 km/h 8 km/h 72.2% 0 mm 127 W/m2
16:59 22.2 °C 16.9 °C 1013.4 hPa SE 1 km/h 8 km/h 72% 0 mm 125 W/m2
17:04 22.1 °C 16.9 °C 1013.4 hPa South 0.6 km/h 8 km/h 72.1% 0 mm 98 W/m2
17:09 22 °C 16.9 °C 1013.4 hPa SW 0.2 km/h 6.4 km/h 73% 0 mm 135 W/m2
17:14 21.9 °C 16.9 °C 1013.4 hPa ESE 1.9 km/h 9.7 km/h 73.2% 0 mm 151 W/m2
17:19 21.9 °C 16.9 °C 1013.8 hPa Calm   9.7 km/h 73.3% 0 mm 156 W/m2
17:24 21.9 °C 17.1 °C 1013.8 hPa Calm   9.7 km/h 74.1% 0 mm 156 W/m2
17:29 21.9 °C 17.1 °C 1013.8 hPa ESE 0.3 km/h 9.7 km/h 74% 0 mm 121 W/m2
17:34 21.8 °C 17 °C 1013.8 hPa ESE 0.8 km/h 9.7 km/h 74% 0 mm 102 W/m2
17:39 21.7 °C 16.9 °C 1013.8 hPa Calm   8 km/h 74.6% 0 mm 104 W/m2
17:44 21.5 °C 16.9 °C 1013.8 hPa SE 0.2 km/h 8 km/h 75% 0 mm 104 W/m2
17:49 21.4 °C 17 °C 1013.8 hPa SSW 0.2 km/h 8 km/h 75.9% 0 mm 95 W/m2
17:54 21.3 °C 17.1 °C 1013.8 hPa Calm   8 km/h 76.5% 0 mm 109 W/m2
17:59 21.3 °C 17.1 °C 1013.8 hPa SE 0.3 km/h 8 km/h 77% 0 mm 116 W/m2
18:04 21.2 °C 17.1 °C 1013.8 hPa SE 0.2 km/h 8 km/h 77.2% 0 mm 125 W/m2
18:09 21.2 °C 17.2 °C 1013.8 hPa Calm   4.8 km/h 78% 0 mm 132 W/m2
18:14 21.2 °C 17.2 °C 1013.8 hPa SE 0.3 km/h 4.8 km/h 78% 0 mm 134 W/m2
18:19 21.1 °C 17.1 °C 1013.4 hPa ESE 0.5 km/h 8 km/h 78% 0 mm 118 W/m2
18:24 20.9 °C 17 °C 1013.4 hPa Calm   8 km/h 78.3% 0 mm 90 W/m2
18:29 20.8 °C 17 °C 1013.4 hPa SE 0.3 km/h 8 km/h 79% 0 mm 62 W/m2
18:34 20.7 °C 17 °C 1013.4 hPa Calm   8 km/h 79.5% 0 mm 58 W/m2
18:39 20.6 °C 17.1 °C 1013.4 hPa Calm     80% 0 mm 56 W/m2
18:44 20.5 °C 16.9 °C 1013.4 hPa Calm   1.6 km/h 80% 0 mm 37 W/m2
18:49 20.4 °C 16.9 °C 1013.8 hPa Calm   1.6 km/h 80.1% 0 mm 33 W/m2
18:54 20.3 °C 16.9 °C 1013.8 hPa Calm   1.6 km/h 81% 0 mm 21 W/m2
18:59 20.2 °C 16.9 °C 1013.8 hPa Calm   1.6 km/h 81% 0 mm 21 W/m2
19:04 20.1 °C 16.8 °C 1013.8 hPa Calm   1.6 km/h 81.2% 0 mm 19 W/m2
19:09 20.1 °C 16.9 °C 1014.1 hPa Calm   1.6 km/h 81.8% 0 mm 16 W/m2
19:14 20.1 °C 16.9 °C 1014.1 hPa SE 0.2 km/h 6.4 km/h 82% 0 mm 23 W/m2
19:19 20 °C 16.8 °C 1013.8 hPa Calm   6.4 km/h 82% 0 mm 23 W/m2
19:24 20 °C 16.8 °C 1013.8 hPa SE 0.3 km/h 6.4 km/h 82% 0 mm 23 W/m2
19:29 20 °C 16.8 °C 1013.8 hPa Calm   6.4 km/h 82% 0 mm 19 W/m2
19:34 19.9 °C 16.8 °C 1013.8 hPa ESE 0.6 km/h 17.7 km/h 82% 0 mm 19 W/m2
19:39 19.9 °C 16.7 °C 1013.4 hPa SSE 0.2 km/h 17.7 km/h 82% 0 mm 18 W/m2
19:44 19.8 °C 16.8 °C 1013.4 hPa Calm   17.7 km/h 82.7% 0 mm 16 W/m2
19:49 19.7 °C 16.8 °C 1013.4 hPa Calm   17.7 km/h 83% 0 mm 11 W/m2
19:54 19.7 °C 16.7 °C 1013.4 hPa Calm   17.7 km/h 83% 0 mm 7 W/m2
19:59 19.6 °C 16.7 °C 1013.4 hPa Calm   17.7 km/h 83% 0 mm 0 W/m2
20:00 19.6 °C 16.6 °C 1013.4 hPa Calm   17.7 km/h 83% 0 mm 0 W/m2
20:09 19.4 °C 16.5 °C 1013.4 hPa Calm     83.3% 0 mm 0 W/m2
20:13 19.3 °C 16.6 °C 1013.4 hPa Calm     84% 0 mm 0 W/m2
20:19 19.3 °C 16.5 °C 1013.4 hPa Calm     84% 0 mm 0 W/m2
20:24 19.2 °C 16.4 °C 1013.8 hPa Calm     84% 0 mm 0 W/m2
20:29 19.1 °C 16.3 °C 1014.1 hPa Calm     84.2% 0 mm 0 W/m2
20:34 19 °C 16.4 °C 1014.1 hPa ESE 0.2 km/h 3.2 km/h 85% 0 mm 0 W/m2
20:39 18.9 °C 16.3 °C 1013.8 hPa Calm   3.2 km/h 85% 0 mm 0 W/m2
20:44 18.8 °C 16.2 °C 1013.8 hPa Calm   3.2 km/h 85.2% 0 mm 0 W/m2
20:49 18.7 °C 16.3 °C 1013.8 hPa Calm   3.2 km/h 86% 0 mm 0 W/m2
20:54 18.6 °C 16.3 °C 1013.8 hPa Calm   3.2 km/h 86.3% 0 mm 0 W/m2
20:59 18.5 °C 16.3 °C 1013.8 hPa Calm   3.2 km/h 87% 0 mm 0 W/m2
21:04 18.4 °C 16.4 °C 1013.8 hPa Calm   3.2 km/h 87.9% 0 mm 0 W/m2
21:09 18.3 °C 16.3 °C 1014.1 hPa Calm     88% 0 mm 0 W/m2
21:14 18.3 °C 16.3 °C 1014.4 hPa Calm     88.2% 0 mm 0 W/m2
21:19 18.2 °C 16.4 °C 1014.4 hPa Calm     89% 0 mm 0 W/m2
21:24 18.2 °C 16.3 °C 1014.4 hPa Calm     89% 0.25 mm 0 W/m2
21:29 18.1 °C 16.4 °C 1014.1 hPa Calm     90% 0.25 mm 0 W/m2
21:34 18 °C 16.3 °C 1014.1 hPa Calm     90% 0.25 mm 0 W/m2
21:39 17.9 °C 16.3 °C 1014.4 hPa Calm     90% 0.51 mm 0 W/m2
21:44 17.9 °C 16.4 °C 1014.4 hPa Calm     91% 0.51 mm 0 W/m2
21:49 17.8 °C 16.3 °C 1014.1 hPa Calm     91% 0.51 mm 0 W/m2
21:54 17.8 °C 16.3 °C 1014.4 hPa Calm     91% 0.51 mm 0 W/m2
21:59 17.8 °C 16.3 °C 1014.4 hPa Calm     91.4% 0.51 mm 0 W/m2
22:04 17.8 °C 16.5 °C 1014.4 hPa Calm     92% 0.51 mm 0 W/m2
22:09 17.8 °C 16.4 °C 1014.4 hPa Calm     92% 0.51 mm 0 W/m2
22:13 17.7 °C 16.4 °C 1014.4 hPa Calm     92% 0.51 mm 0 W/m2
22:19 17.7 °C 16.4 °C 1014.4 hPa Calm     92% 0.76 mm 0 W/m2
22:24 17.7 °C 16.3 °C 1014.1 hPa Calm     92% 1.02 mm 0 W/m2
22:29 17.6 °C 16.3 °C 1014.1 hPa Calm     92% 1.02 mm 0 W/m2
22:34 17.6 °C 16.2 °C 1014.1 hPa Calm     92% 1.02 mm 0 W/m2
22:39 17.6 °C 16.4 °C 1014.1 hPa Calm     93% 0.76 mm 0 W/m2
22:44 17.5 °C 16.3 °C 1013.8 hPa Calm     93% 0.76 mm 0 W/m2
22:49 17.5 °C 16.3 °C 1014.1 hPa Calm     93% 0.76 mm 0 W/m2
22:54 17.5 °C 16.3 °C 1014.1 hPa Calm     93% 0.76 mm 0 W/m2
22:59 17.5 °C 16.3 °C 1014.1 hPa Calm     93% 0.76 mm 0 W/m2
23:04 17.5 °C 16.3 °C 1014.1 hPa Calm     93% 0.76 mm 0 W/m2
23:09 17.4 °C 16.3 °C 1014.1 hPa Calm     93% 0.51 mm 0 W/m2
23:14 17.4 °C 16.3 °C 1014.1 hPa Calm     93% 0.51 mm 0 W/m2
23:19 17.4 °C 16.3 °C 1014.1 hPa Calm     93% 0.51 mm 0 W/m2
23:24 17.3 °C 16.2 °C 1014.1 hPa Calm     93% 0.51 mm 0 W/m2
23:29 17.3 °C 16.2 °C 1014.1 hPa Calm     93% 0.51 mm 0 W/m2
23:34 17.3 °C 16.2 °C 1014.1 hPa Calm     93% 0.51 mm 0 W/m2
23:39 17.3 °C 16.4 °C 1014.1 hPa Calm     94% 0 mm 0 W/m2
23:44 17.3 °C 16.3 °C 1014.1 hPa Calm     94% 0 mm 0 W/m2
23:49 17.3 °C 16.3 °C 1014.1 hPa Calm     94% 0 mm 0 W/m2
23:54 17.3 °C 16.3 °C 1014.1 hPa SE 0.2 km/h 4.8 km/h 94% 0 mm 0 W/m2
23:59 17.3 °C 16.3 °C 1014.1 hPa Calm   4.8 km/h 94% 0 mm 0 W/m2
Hartford County Weather
Compliments of Weather Underground - 2 mb